sensor_id;sensor_type;location;lat;lon;timestamp;pressure;altitude;pressure_sealevel;temperature;humidity
19208;BME280;9737;59.466;18.036;2022-09-09T00:02:19;96450.13;;;7.36;58.39
19208;BME280;9737;59.466;18.036;2022-09-09T00:04:58;96409.34;;;7.24;58.37
19208;BME280;9737;59.466;18.036;2022-09-09T00:07:38;96382.66;;;7.19;58.72
19208;BME280;9737;59.466;18.036;2022-09-09T00:10:19;96336.44;;;7.08;58.76
19208;BME280;9737;59.466;18.036;2022-09-09T00:12:56;96304.06;;;6.99;58.24
19208;BME280;9737;59.466;18.036;2022-09-09T00:15:30;96276.75;;;6.92;58.93
19208;BME280;9737;59.466;18.036;2022-09-09T00:18:05;96232.34;;;6.74;58.59
19208;BME280;9737;59.466;18.036;2022-09-09T00:20:41;96238.06;;;6.78;58.34
19208;BME280;9737;59.466;18.036;2022-09-09T00:23:14;96231.78;;;6.79;58.91
19208;BME280;9737;59.466;18.036;2022-09-09T00:25:50;96210.41;;;6.74;58.42
19208;BME280;9737;59.466;18.036;2022-09-09T00:28:25;96207.16;;;6.72;58.71
19208;BME280;9737;59.466;18.036;2022-09-09T00:30:55;96188.78;;;6.64;59.13
19208;BME280;9737;59.466;18.036;2022-09-09T00:33:25;96215.69;;;6.74;59.16
19208;BME280;9737;59.466;18.036;2022-09-09T00:35:58;96208.41;;;6.76;59.09
19208;BME280;9737;59.466;18.036;2022-09-09T00:38:32;96239.69;;;6.79;58.74
19208;BME280;9737;59.466;18.036;2022-09-09T00:41:06;96250.50;;;6.84;59.29
19208;BME280;9737;59.466;18.036;2022-09-09T00:43:36;96275.13;;;6.91;59.47
19208;BME280;9737;59.466;18.036;2022-09-09T00:46:23;96313.00;;;6.98;58.99
19208;BME280;9737;59.466;18.036;2022-09-09T00:49:00;96348.84;;;7.07;59.01
19208;BME280;9737;59.466;18.036;2022-09-09T00:51:44;96381.41;;;7.14;59.42
19208;BME280;9737;59.466;18.036;2022-09-09T00:54:26;96417.28;;;7.24;59.73
19208;BME280;9737;59.466;18.036;2022-09-09T00:57:05;96454.78;;;7.34;59.00
19208;BME280;9737;59.466;18.036;2022-09-09T00:59:45;96475.16;;;7.40;59.47
19208;BME280;9737;59.466;18.036;2022-09-09T01:02:20;96501.66;;;7.46;59.65
19208;BME280;9737;59.466;18.036;2022-09-09T01:04:49;96516.78;;;7.53;59.67
19208;BME280;9737;59.466;18.036;2022-09-09T01:07:19;96547.75;;;7.59;59.85
19208;BME280;9737;59.466;18.036;2022-09-09T01:09:52;96572.63;;;7.64;60.10
19208;BME280;9737;59.466;18.036;2022-09-09T01:12:30;96582.81;;;7.67;60.06
19208;BME280;9737;59.466;18.036;2022-09-09T01:15:08;96608.50;;;7.73;60.18
19208;BME280;9737;59.466;18.036;2022-09-09T01:17:45;96629.91;;;7.78;59.82
19208;BME280;9737;59.466;18.036;2022-09-09T01:20:18;96633.56;;;7.77;60.15
19208;BME280;9737;59.466;18.036;2022-09-09T01:23:00;96665.03;;;7.87;60.23
19208;BME280;9737;59.466;18.036;2022-09-09T01:26:10;96682.34;;;7.90;60.37
19208;BME280;9737;59.466;18.036;2022-09-09T01:28:43;96699.09;;;7.97;60.16
19208;BME280;9737;59.466;18.036;2022-09-09T01:31:15;96717.25;;;8.00;60.47
19208;BME280;9737;59.466;18.036;2022-09-09T01:33:45;96719.91;;;8.00;60.58
19208;BME280;9737;59.466;18.036;2022-09-09T01:36:21;96743.59;;;8.08;60.80
19208;BME280;9737;59.466;18.036;2022-09-09T01:38:50;96766.06;;;8.12;60.72
19208;BME280;9737;59.466;18.036;2022-09-09T01:41:19;96777.91;;;8.16;60.63
19208;BME280;9737;59.466;18.036;2022-09-09T01:43:48;96805.25;;;8.23;60.70
19208;BME280;9737;59.466;18.036;2022-09-09T01:46:21;96818.75;;;8.28;60.79
19208;BME280;9737;59.466;18.036;2022-09-09T01:48:50;96839.56;;;8.31;60.64
19208;BME280;9737;59.466;18.036;2022-09-09T01:51:19;96855.91;;;8.35;61.30
19208;BME280;9737;59.466;18.036;2022-09-09T01:53:47;96877.59;;;8.38;60.90
19208;BME280;9737;59.466;18.036;2022-09-09T01:56:25;96875.91;;;8.37;61.23
19208;BME280;9737;59.466;18.036;2022-09-09T01:59:08;96882.50;;;8.42;60.89
19208;BME280;9737;59.466;18.036;2022-09-09T02:01:55;96885.78;;;8.44;61.27
19208;BME280;9737;59.466;18.036;2022-09-09T02:04:36;96890.06;;;8.45;61.46
19208;BME280;9737;59.466;18.036;2022-09-09T02:07:10;96889.44;;;8.43;61.00
19208;BME280;9737;59.466;18.036;2022-09-09T02:09:45;96886.16;;;8.41;61.65
19208;BME280;9737;59.466;18.036;2022-09-09T02:12:18;96883.69;;;8.39;61.36
19208;BME280;9737;59.466;18.036;2022-09-09T02:14:51;96875.09;;;8.37;61.57
19208;BME280;9737;59.466;18.036;2022-09-09T02:17:25;96889.81;;;8.40;61.76
19208;BME280;9737;59.466;18.036;2022-09-09T02:19:59;96888.44;;;8.44;61.51
19208;BME280;9737;59.466;18.036;2022-09-09T02:22:31;96900.41;;;8.40;61.87
19208;BME280;9737;59.466;18.036;2022-09-09T02:25:02;96925.94;;;8.47;61.45
19208;BME280;9737;59.466;18.036;2022-09-09T02:27:33;96945.56;;;8.53;61.89
19208;BME280;9737;59.466;18.036;2022-09-09T02:30:04;96945.13;;;8.49;61.80
19208;BME280;9737;59.466;18.036;2022-09-09T02:32:34;96976.25;;;8.62;61.74
19208;BME280;9737;59.466;18.036;2022-09-09T02:35:08;97000.34;;;8.67;62.04
19208;BME280;9737;59.466;18.036;2022-09-09T02:37:38;97013.25;;;8.70;61.91
19208;BME280;9737;59.466;18.036;2022-09-09T02:40:10;97023.47;;;8.73;61.73
19208;BME280;9737;59.466;18.036;2022-09-09T02:42:41;97050.03;;;8.80;62.44
19208;BME280;9737;59.466;18.036;2022-09-09T02:45:11;97064.75;;;8.82;62.14
19208;BME280;9737;59.466;18.036;2022-09-09T02:47:45;97073.97;;;8.86;62.51
19208;BME280;9737;59.466;18.036;2022-09-09T02:50:19;97097.09;;;8.92;62.28
19208;BME280;9737;59.466;18.036;2022-09-09T02:52:59;97130.66;;;9.00;62.67
19208;BME280;9737;59.466;18.036;2022-09-09T02:55:37;97148.66;;;9.05;62.58
19208;BME280;9737;59.466;18.036;2022-09-09T02:58:09;97161.53;;;9.08;62.75
19208;BME280;9737;59.466;18.036;2022-09-09T03:00:39;97183.38;;;9.10;62.83
19208;BME280;9737;59.466;18.036;2022-09-09T03:03:07;97184.19;;;9.10;62.41
19208;BME280;9737;59.466;18.036;2022-09-09T03:05:36;97199.56;;;9.15;62.31
19208;BME280;9737;59.466;18.036;2022-09-09T03:08:05;97210.81;;;9.17;63.09
19208;BME280;9737;59.466;18.036;2022-09-09T03:10:34;97189.03;;;9.07;62.67
19208;BME280;9737;59.466;18.036;2022-09-09T03:13:03;97214.09;;;9.19;63.41
19208;BME280;9737;59.466;18.036;2022-09-09T03:15:33;97223.06;;;9.18;62.98
19208;BME280;9737;59.466;18.036;2022-09-09T03:18:01;97224.34;;;9.22;62.72
19208;BME280;9737;59.466;18.036;2022-09-09T03:20:30;97228.00;;;9.21;63.02
19208;BME280;9737;59.466;18.036;2022-09-09T03:22:59;97242.53;;;9.25;63.01
19208;BME280;9737;59.466;18.036;2022-09-09T03:25:29;97250.31;;;9.26;62.88
19208;BME280;9737;59.466;18.036;2022-09-09T03:27:57;97251.16;;;9.27;62.92
19208;BME280;9737;59.466;18.036;2022-09-09T03:30:26;97271.00;;;9.31;63.69
19208;BME280;9737;59.466;18.036;2022-09-09T03:32:56;97262.41;;;9.29;63.31
19208;BME280;9737;59.466;18.036;2022-09-09T03:35:24;97273.47;;;9.32;63.85
19208;BME280;9737;59.466;18.036;2022-09-09T03:37:52;97271.00;;;9.31;63.28
19208;BME280;9737;59.466;18.036;2022-09-09T03:40:22;97276.94;;;9.33;63.14
19208;BME280;9737;59.466;18.036;2022-09-09T03:42:50;97275.28;;;9.32;63.31
19208;BME280;9737;59.466;18.036;2022-09-09T03:45:18;97292.47;;;9.36;63.34
19208;BME280;9737;59.466;18.036;2022-09-09T03:47:46;97291.47;;;9.37;64.23
19208;BME280;9737;59.466;18.036;2022-09-09T03:50:15;97308.03;;;9.39;63.89
19208;BME280;9737;59.466;18.036;2022-09-09T03:52:51;97312.31;;;9.40;63.69
19208;BME280;9737;59.466;18.036;2022-09-09T03:55:19;97325.22;;;9.43;63.78
19208;BME280;9737;59.466;18.036;2022-09-09T03:57:47;97320.28;;;9.40;64.04
19208;BME280;9737;59.466;18.036;2022-09-09T04:00:17;97332.19;;;9.44;63.89
19208;BME280;9737;59.466;18.036;2022-09-09T04:02:45;97340.97;;;9.45;64.12
19208;BME280;9737;59.466;18.036;2022-09-09T04:05:13;97345.06;;;9.47;64.49
19208;BME280;9737;59.466;18.036;2022-09-09T04:07:43;97352.03;;;9.48;64.06
19208;BME280;9737;59.466;18.036;2022-09-09T04:10:11;97350.00;;;9.50;64.18
19208;BME280;9737;59.466;18.036;2022-09-09T04:12:40;97367.41;;;9.53;64.30
19208;BME280;9737;59.466;18.036;2022-09-09T04:15:10;97377.00;;;9.54;64.36
19208;BME280;9737;59.466;18.036;2022-09-09T04:17:38;97395.06;;;9.58;64.43
19208;BME280;9737;59.466;18.036;2022-09-09T04:20:06;97401.84;;;9.61;64.52
19208;BME280;9737;59.466;18.036;2022-09-09T04:22:37;97420.69;;;9.66;64.45
19208;BME280;9737;59.466;18.036;2022-09-09T04:25:08;97434.78;;;9.67;64.63
19208;BME280;9737;59.466;18.036;2022-09-09T04:27:53;97440.91;;;9.67;64.67
19208;BME280;9737;59.466;18.036;2022-09-09T04:30:39;97470.84;;;9.76;64.83
19208;BME280;9737;59.466;18.036;2022-09-09T04:33:08;97484.75;;;9.78;64.74
19208;BME280;9737;59.466;18.036;2022-09-09T04:35:38;97509.78;;;9.83;64.40
19208;BME280;9737;59.466;18.036;2022-09-09T04:38:06;97502.78;;;9.82;64.60
19208;BME280;9737;59.466;18.036;2022-09-09T04:40:37;97528.28;;;9.91;64.76
19208;BME280;9737;59.466;18.036;2022-09-09T04:43:07;97556.13;;;9.96;64.73
19208;BME280;9737;59.466;18.036;2022-09-09T04:45:40;97562.91;;;9.98;64.63
19208;BME280;9737;59.466;18.036;2022-09-09T04:48:08;97595.22;;;10.02;65.47
19208;BME280;9737;59.466;18.036;2022-09-09T04:50:37;97611.91;;;10.10;64.89
19208;BME280;9737;59.466;18.036;2022-09-09T04:53:05;97621.69;;;10.10;65.36
19208;BME280;9737;59.466;18.036;2022-09-09T04:55:34;97642.09;;;10.17;65.34
19208;BME280;9737;59.466;18.036;2022-09-09T04:58:05;97660.34;;;10.20;65.49
19208;BME280;9737;59.466;18.036;2022-09-09T05:00:33;97671.63;;;10.22;65.91
19208;BME280;9737;59.466;18.036;2022-09-09T05:03:03;97675.44;;;10.20;65.54
19208;BME280;9737;59.466;18.036;2022-09-09T05:05:32;97688.84;;;10.27;65.29
19208;BME280;9737;59.466;18.036;2022-09-09T05:08:02;97694.81;;;10.29;65.32
19208;BME280;9737;59.466;18.036;2022-09-09T05:10:31;97706.91;;;10.31;65.71
19208;BME280;9737;59.466;18.036;2022-09-09T05:12:59;97700.13;;;10.29;65.50
19208;BME280;9737;59.466;18.036;2022-09-09T05:15:28;97719.00;;;10.34;66.14
19208;BME280;9737;59.466;18.036;2022-09-09T05:17:57;97730.28;;;10.36;65.54
19208;BME280;9737;59.466;18.036;2022-09-09T05:20:25;97756.81;;;10.44;65.20
19208;BME280;9737;59.466;18.036;2022-09-09T05:22:53;97759.66;;;10.42;65.58
19208;BME280;9737;59.466;18.036;2022-09-09T05:25:22;97789.63;;;10.51;65.63
19208;BME280;9737;59.466;18.036;2022-09-09T05:27:52;97805.88;;;10.56;66.16
19208;BME280;9737;59.466;18.036;2022-09-09T05:30:21;97825.78;;;10.60;66.00
19208;BME280;9737;59.466;18.036;2022-09-09T05:32:56;97852.28;;;10.68;66.11
19208;BME280;9737;59.466;18.036;2022-09-09T05:35:24;97891.50;;;10.74;66.19
19208;BME280;9737;59.466;18.036;2022-09-09T05:37:53;97897.63;;;10.75;66.34
19208;BME280;9737;59.466;18.036;2022-09-09T05:40:22;97934.28;;;10.88;65.60
19208;BME280;9737;59.466;18.036;2022-09-09T05:42:50;97967.47;;;10.92;66.24
19208;BME280;9737;59.466;18.036;2022-09-09T05:45:20;98025.91;;;11.08;66.00
19208;BME280;9737;59.466;18.036;2022-09-09T05:47:51;98083.03;;;11.20;66.06
19208;BME280;9737;59.466;18.036;2022-09-09T05:50:21;98160.44;;;11.41;66.36
19208;BME280;9737;59.466;18.036;2022-09-09T05:52:54;98351.16;;;11.90;66.66
19208;BME280;9737;59.466;18.036;2022-09-09T05:55:22;98596.84;;;12.49;66.32
19208;BME280;9737;59.466;18.036;2022-09-09T05:57:52;98775.16;;;12.92;66.67
19208;BME280;9737;59.466;18.036;2022-09-09T06:00:20;99055.03;;;13.62;66.74
19208;BME280;9737;59.466;18.036;2022-09-09T06:02:50;99204.56;;;13.96;66.98
19208;BME280;9737;59.466;18.036;2022-09-09T06:05:19;99335.66;;;14.29;66.85
19208;BME280;9737;59.466;18.036;2022-09-09T06:07:53;99480.75;;;14.65;67.24
19208;BME280;9737;59.466;18.036;2022-09-09T06:10:22;99596.25;;;14.86;67.28
19208;BME280;9737;59.466;18.036;2022-09-09T06:12:52;99635.97;;;14.99;67.07
19208;BME280;9737;59.466;18.036;2022-09-09T06:15:20;99600.97;;;14.92;67.21
19208;BME280;9737;59.466;18.036;2022-09-09T06:17:54;99608.00;;;14.93;67.34
19208;BME280;9737;59.466;18.036;2022-09-09T06:20:22;99671.44;;;15.01;67.25
19208;BME280;9737;59.466;18.036;2022-09-09T06:22:50;99708.53;;;15.13;67.33
19208;BME280;9737;59.466;18.036;2022-09-09T06:25:19;99620.38;;;14.94;67.45
19208;BME280;9737;59.466;18.036;2022-09-09T06:27:48;99612.50;;;14.93;67.60
19208;BME280;9737;59.466;18.036;2022-09-09T06:30:17;99618.00;;;14.83;67.50
19208;BME280;9737;59.466;18.036;2022-09-09T06:32:45;99618.88;;;14.92;67.77
19208;BME280;9737;59.466;18.036;2022-09-09T06:35:13;99531.78;;;14.71;67.55
19208;BME280;9737;59.466;18.036;2022-09-09T06:37:44;99490.94;;;14.61;67.38
19208;BME280;9737;59.466;18.036;2022-09-09T06:40:12;99557.09;;;14.77;67.62
19208;BME280;9737;59.466;18.036;2022-09-09T06:42:43;99650.50;;;14.96;67.58
19208;BME280;9737;59.466;18.036;2022-09-09T06:45:11;99669.59;;;15.01;67.43
19208;BME280;9737;59.466;18.036;2022-09-09T06:47:39;99735.81;;;15.17;67.49
19208;BME280;9737;59.466;18.036;2022-09-09T06:50:08;99775.03;;;15.26;67.61
19208;BME280;9737;59.466;18.036;2022-09-09T06:52:37;99836.94;;;15.41;67.71
19208;BME280;9737;59.466;18.036;2022-09-09T06:55:06;99886.72;;;15.52;67.55
19208;BME280;9737;59.466;18.036;2022-09-09T06:57:34;99974.53;;;15.75;67.71
19208;BME280;9737;59.466;18.036;2022-09-09T07:00:06;100049.75;;;15.92;67.69
19208;BME280;9737;59.466;18.036;2022-09-09T07:02:35;100013.97;;;15.83;67.47
19208;BME280;9737;59.466;18.036;2022-09-09T07:05:06;99855.38;;;15.44;67.82
19208;BME280;9737;59.466;18.036;2022-09-09T07:07:35;99761.97;;;15.23;67.25
19208;BME280;9737;59.466;18.036;2022-09-09T07:10:04;99791.63;;;15.30;67.64
19208;BME280;9737;59.466;18.036;2022-09-09T07:12:32;99826.53;;;15.38;67.34
19208;BME280;9737;59.466;18.036;2022-09-09T07:15:00;99913.75;;;15.58;67.56
19208;BME280;9737;59.466;18.036;2022-09-09T07:17:29;99925.03;;;15.62;67.65
19208;BME280;9737;59.466;18.036;2022-09-09T07:19:57;99965.44;;;15.68;67.38
19208;BME280;9737;59.466;18.036;2022-09-09T07:22:27;99959.09;;;15.69;67.33
19208;BME280;9737;59.466;18.036;2022-09-09T07:24:55;100011.44;;;15.82;67.49
19208;BME280;9737;59.466;18.036;2022-09-09T07:27:23;100050.75;;;15.91;67.43
19208;BME280;9737;59.466;18.036;2022-09-09T07:29:51;100020.34;;;15.82;67.03
19208;BME280;9737;59.466;18.036;2022-09-09T07:32:20;100095.41;;;16.00;67.34
19208;BME280;9737;59.466;18.036;2022-09-09T07:34:50;100130.84;;;16.11;67.28
19208;BME280;9737;59.466;18.036;2022-09-09T07:37:20;100132.69;;;16.11;67.26
19208;BME280;9737;59.466;18.036;2022-09-09T07:39:48;100230.66;;;16.33;67.41
19208;BME280;9737;59.466;18.036;2022-09-09T07:42:17;100261.06;;;16.41;67.30
19208;BME280;9737;59.466;18.036;2022-09-09T07:47:37;100594.25;;;17.21;66.88
19208;BME280;9737;59.466;18.036;2022-09-09T07:50:09;100604.56;;;17.25;67.23
19208;BME280;9737;59.466;18.036;2022-09-09T07:52:38;100478.78;;;16.93;67.19
19208;BME280;9737;59.466;18.036;2022-09-09T07:55:06;100452.69;;;16.86;67.12
19208;BME280;9737;59.466;18.036;2022-09-09T07:57:34;100393.94;;;16.73;67.12
19208;BME280;9737;59.466;18.036;2022-09-09T08:00:03;100389.59;;;16.72;66.86
19208;BME280;9737;59.466;18.036;2022-09-09T08:02:32;100343.16;;;16.62;66.89
19208;BME280;9737;59.466;18.036;2022-09-09T08:05:00;100359.09;;;16.63;66.66
19208;BME280;9737;59.466;18.036;2022-09-09T08:07:29;100417.38;;;16.81;66.74
19208;BME280;9737;59.466;18.036;2022-09-09T08:09:57;100359.66;;;16.67;66.71
19208;BME280;9737;59.466;18.036;2022-09-09T08:12:25;100283.75;;;16.47;66.56
19208;BME280;9737;59.466;18.036;2022-09-09T08:14:53;100152.53;;;16.18;66.76
19208;BME280;9737;59.466;18.036;2022-09-09T08:17:22;100194.56;;;16.27;66.46
19208;BME280;9737;59.466;18.036;2022-09-09T08:19:49;100150.84;;;16.17;66.61
19208;BME280;9737;59.466;18.036;2022-09-09T08:22:17;100297.75;;;16.51;66.62
19208;BME280;9737;59.466;18.036;2022-09-09T08:24:47;100472.41;;;16.94;66.41
19208;BME280;9737;59.466;18.036;2022-09-09T08:27:15;100436.72;;;16.84;66.46
19208;BME280;9737;59.466;18.036;2022-09-09T08:29:43;100242.44;;;16.40;66.26
19208;BME280;9737;59.466;18.036;2022-09-09T08:32:11;100190.34;;;16.25;66.12
19208;BME280;9737;59.466;18.036;2022-09-09T08:34:39;100047.59;;;15.95;66.31
19208;BME280;9737;59.466;18.036;2022-09-09T08:37:12;99997.03;;;15.83;66.16
19208;BME280;9737;59.466;18.036;2022-09-09T08:39:40;99913.47;;;15.61;66.09
19208;BME280;9737;59.466;18.036;2022-09-09T08:42:20;99898.53;;;15.59;65.67
19208;BME280;9737;59.466;18.036;2022-09-09T08:45:03;99900.19;;;15.60;65.88
19208;BME280;9737;59.466;18.036;2022-09-09T08:47:42;99980.28;;;15.80;65.97
19208;BME280;9737;59.466;18.036;2022-09-09T08:50:19;99997.88;;;15.83;65.76
19208;BME280;9737;59.466;18.036;2022-09-09T08:52:55;100034.34;;;15.94;65.51
19208;BME280;9737;59.466;18.036;2022-09-09T08:55:33;100056.16;;;15.99;65.72
19208;BME280;9737;59.466;18.036;2022-09-09T08:58:09;100180.97;;;16.29;65.44
19208;BME280;9737;59.466;18.036;2022-09-09T09:00:44;100335.63;;;16.65;65.59
19208;BME280;9737;59.466;18.036;2022-09-09T09:03:23;100348.22;;;16.65;65.20
19208;BME280;9737;59.466;18.036;2022-09-09T09:06:02;100316.75;;;16.57;65.55
19208;BME280;9737;59.466;18.036;2022-09-09T09:08:38;100308.88;;;16.56;65.33
19208;BME280;9737;59.466;18.036;2022-09-09T09:11:10;100288.38;;;16.55;65.37
19208;BME280;9737;59.466;18.036;2022-09-09T09:13:43;100302.19;;;16.60;65.31
19208;BME280;9737;59.466;18.036;2022-09-09T09:16:19;100319.81;;;16.62;65.15
19208;BME280;9737;59.466;18.036;2022-09-09T09:18:51;100285.00;;;16.53;65.03
19208;BME280;9737;59.466;18.036;2022-09-09T09:21:24;100268.06;;;16.52;65.04
19208;BME280;9737;59.466;18.036;2022-09-09T09:23:57;100286.38;;;16.57;65.26
19208;BME280;9737;59.466;18.036;2022-09-09T09:26:29;100312.63;;;16.63;64.91
19208;BME280;9737;59.466;18.036;2022-09-09T09:29:01;100476.84;;;17.03;64.97
19208;BME280;9737;59.466;18.036;2022-09-09T09:31:31;100562.69;;;17.23;64.91
19208;BME280;9737;59.466;18.036;2022-09-09T09:33:59;100594.03;;;17.32;64.84
19208;BME280;9737;59.466;18.036;2022-09-09T09:36:39;100560.16;;;17.21;64.72
19208;BME280;9737;59.466;18.036;2022-09-09T09:39:09;100496.34;;;17.06;64.69
19208;BME280;9737;59.466;18.036;2022-09-09T09:41:57;100461.34;;;16.97;64.65
19208;BME280;9737;59.466;18.036;2022-09-09T09:44:33;100343.94;;;16.72;64.48
19208;BME280;9737;59.466;18.036;2022-09-09T09:47:08;100321.66;;;16.62;64.42
19208;BME280;9737;59.466;18.036;2022-09-09T09:49:37;100303.34;;;16.57;64.41
19208;BME280;9737;59.466;18.036;2022-09-09T09:52:06;100319.28;;;16.59;64.21
19208;BME280;9737;59.466;18.036;2022-09-09T09:54:38;100358.03;;;16.74;64.38
19208;BME280;9737;59.466;18.036;2022-09-09T09:57:09;100312.09;;;16.59;64.18
19208;BME280;9737;59.466;18.036;2022-09-09T09:59:39;100382.31;;;16.82;64.09
19208;BME280;9737;59.466;18.036;2022-09-09T10:02:25;100689.25;;;17.57;64.07
19208;BME280;9737;59.466;18.036;2022-09-09T10:05:01;100745.00;;;17.64;63.98
19208;BME280;9737;59.466;18.036;2022-09-09T10:07:30;100744.56;;;17.69;63.99
19208;BME280;9737;59.466;18.036;2022-09-09T10:09:59;100734.94;;;17.67;64.00
19208;BME280;9737;59.466;18.036;2022-09-09T10:12:37;100621.34;;;17.37;63.75
19208;BME280;9737;59.466;18.036;2022-09-09T10:15:32;100521.31;;;17.16;63.84
19208;BME280;9737;59.466;18.036;2022-09-09T10:18:16;100583.13;;;17.33;63.67
19208;BME280;9737;59.466;18.036;2022-09-09T10:20:55;100720.91;;;17.63;63.49
19208;BME280;9737;59.466;18.036;2022-09-09T10:23:38;101307.59;;;19.05;63.58
19208;BME280;9737;59.466;18.036;2022-09-09T10:26:19;102262.38;;;21.23;63.54
19208;BME280;9737;59.466;18.036;2022-09-09T10:29:01;103101.13;;;23.14;63.88
19208;BME280;9737;59.466;18.036;2022-09-09T10:31:42;103672.50;;;24.36;63.66
19208;BME280;9737;59.466;18.036;2022-09-09T10:34:26;103270.59;;;23.44;63.80
19208;BME280;9737;59.466;18.036;2022-09-09T10:37:07;102992.22;;;22.87;63.50
19208;BME280;9737;59.466;18.036;2022-09-09T10:39:43;102725.31;;;22.27;63.60
19208;BME280;9737;59.466;18.036;2022-09-09T10:42:13;102556.06;;;21.89;63.41
19208;BME280;9737;59.466;18.036;2022-09-09T10:44:51;102813.88;;;22.47;63.26
19208;BME280;9737;59.466;18.036;2022-09-09T10:47:34;103277.84;;;23.55;63.34
19208;BME280;9737;59.466;18.036;2022-09-09T10:50:24;103512.81;;;24.05;62.97
19208;BME280;9737;59.466;18.036;2022-09-09T10:53:24;103723.91;;;24.51;62.94
19208;BME280;9737;59.466;18.036;2022-09-09T10:55:59;103041.72;;;23.00;63.35
19208;BME280;9737;59.466;18.036;2022-09-09T10:58:36;102256.97;;;21.23;62.89
19208;BME280;9737;59.466;18.036;2022-09-09T11:01:13;101839.84;;;20.32;62.68
19208;BME280;9737;59.466;18.036;2022-09-09T11:03:50;101601.09;;;19.77;62.48
19208;BME280;9737;59.466;18.036;2022-09-09T11:06:27;101154.53;;;18.71;62.30
19208;BME280;9737;59.466;18.036;2022-09-09T11:08:57;101380.78;;;19.29;62.12
19208;BME280;9737;59.466;18.036;2022-09-09T11:11:32;101220.84;;;18.92;61.89
19208;BME280;9737;59.466;18.036;2022-09-09T11:14:11;100840.56;;;17.96;61.98
19208;BME280;9737;59.466;18.036;2022-09-09T11:16:48;100920.88;;;18.18;61.58
19208;BME280;9737;59.466;18.036;2022-09-09T11:19:24;100953.69;;;18.32;61.55
19208;BME280;9737;59.466;18.036;2022-09-09T11:21:56;101010.06;;;18.33;61.19
19208;BME280;9737;59.466;18.036;2022-09-09T11:24:29;101051.78;;;18.56;61.25
19208;BME280;9737;59.466;18.036;2022-09-09T11:27:02;100986.78;;;18.42;61.37
19208;BME280;9737;59.466;18.036;2022-09-09T11:30:13;100956.22;;;18.33;61.21
19208;BME280;9737;59.466;18.036;2022-09-09T11:33:28;100925.66;;;18.24;61.15
19208;BME280;9737;59.466;18.036;2022-09-09T11:36:25;100955.91;;;18.36;61.00
19208;BME280;9737;59.466;18.036;2022-09-09T11:39:02;100973.47;;;18.40;60.74
19208;BME280;9737;59.466;18.036;2022-09-09T11:41:36;101034.78;;;18.56;60.80
19208;BME280;9737;59.466;18.036;2022-09-09T11:44:10;100884.88;;;18.19;60.68
19208;BME280;9737;59.466;18.036;2022-09-09T11:46:41;100821.50;;;18.07;60.64
19208;BME280;9737;59.466;18.036;2022-09-09T11:49:26;100883.75;;;18.22;60.40
19208;BME280;9737;59.466;18.036;2022-09-09T11:51:56;100889.13;;;18.22;60.39
19208;BME280;9737;59.466;18.036;2022-09-09T11:54:29;100811.03;;;18.04;60.39
19208;BME280;9737;59.466;18.036;2022-09-09T11:56:59;100899.59;;;18.25;60.46
19208;BME280;9737;59.466;18.036;2022-09-09T11:59:28;101011.84;;;18.52;60.24
19208;BME280;9737;59.466;18.036;2022-09-09T12:01:58;101049.38;;;18.63;60.20
19208;BME280;9737;59.466;18.036;2022-09-09T12:04:30;101081.78;;;18.71;59.97
19208;BME280;9737;59.466;18.036;2022-09-09T12:07:03;100970.47;;;18.43;60.01
19208;BME280;9737;59.466;18.036;2022-09-09T12:09:44;100944.84;;;18.39;59.91
19208;BME280;9737;59.466;18.036;2022-09-09T12:12:26;100884.59;;;18.22;59.75
19208;BME280;9737;59.466;18.036;2022-09-09T12:15:16;100871.25;;;18.21;59.56
19208;BME280;9737;59.466;18.036;2022-09-09T12:17:48;100836.72;;;18.16;59.50
19208;BME280;9737;59.466;18.036;2022-09-09T12:20:20;100879.91;;;18.24;59.54
19208;BME280;9737;59.466;18.036;2022-09-09T12:23:00;100742.00;;;17.95;59.36
19208;BME280;9737;59.466;18.036;2022-09-09T12:25:39;100788.50;;;18.05;59.47
19208;BME280;9737;59.466;18.036;2022-09-09T12:28:15;100949.91;;;18.42;59.32
19208;BME280;9737;59.466;18.036;2022-09-09T12:30:50;100861.22;;;18.23;59.32
19208;BME280;9737;59.466;18.036;2022-09-09T12:33:21;100907.22;;;18.30;59.08
19208;BME280;9737;59.466;18.036;2022-09-09T12:35:54;100790.50;;;18.03;59.11
19208;BME280;9737;59.466;18.036;2022-09-09T12:38:29;100615.91;;;17.64;58.94
19208;BME280;9737;59.466;18.036;2022-09-09T12:40:59;100671.53;;;17.82;58.85
19208;BME280;9737;59.466;18.036;2022-09-09T12:43:30;100713.81;;;17.89;58.82
19208;BME280;9737;59.466;18.036;2022-09-09T12:46:00;100584.22;;;17.58;58.84
19208;BME280;9737;59.466;18.036;2022-09-09T12:48:34;100559.56;;;17.45;58.71
19208;BME280;9737;59.466;18.036;2022-09-09T12:51:05;100704.75;;;17.90;58.55
19208;BME280;9737;59.466;18.036;2022-09-09T12:53:44;100754.66;;;18.03;58.64
19208;BME280;9737;59.466;18.036;2022-09-09T12:56:19;100750.44;;;18.00;58.61
19208;BME280;9737;59.466;18.036;2022-09-09T12:58:51;100695.59;;;17.83;58.39
19208;BME280;9737;59.466;18.036;2022-09-09T13:01:22;100735.59;;;17.96;58.61
19208;BME280;9737;59.466;18.036;2022-09-09T13:03:51;100735.75;;;17.94;58.27
19208;BME280;9737;59.466;18.036;2022-09-09T13:06:22;100864.97;;;18.30;58.37
19208;BME280;9737;59.466;18.036;2022-09-09T13:08:57;100737.44;;;17.95;58.25
19208;BME280;9737;59.466;18.036;2022-09-09T13:11:46;100731.28;;;17.85;58.20
19208;BME280;9737;59.466;18.036;2022-09-09T13:14:19;100816.19;;;18.15;58.15
19208;BME280;9737;59.466;18.036;2022-09-09T13:16:55;100867.22;;;18.35;58.06
19208;BME280;9737;59.466;18.036;2022-09-09T13:19:24;100838.66;;;18.24;57.95
19208;BME280;9737;59.466;18.036;2022-09-09T13:21:54;100794.81;;;18.14;57.95
19208;BME280;9737;59.466;18.036;2022-09-09T13:24:28;100698.53;;;17.90;57.93
19208;BME280;9737;59.466;18.036;2022-09-09T13:26:59;100797.19;;;18.17;57.87
19208;BME280;9737;59.466;18.036;2022-09-09T13:29:29;100704.31;;;17.95;57.74
19208;BME280;9737;59.466;18.036;2022-09-09T13:32:04;100704.31;;;17.95;57.74
19208;BME280;9737;59.466;18.036;2022-09-09T13:34:33;100637.50;;;17.73;57.54